EGAC Airport Information

Runway Information
Runway 04 Length 6001 ft width 148 ft
Elevation 13 ft Threshold 303 ft Heading 35
Runway 22 Length 6001 ft Width 148 ft
Elevation 12 ft Threshold 0 ft Heading 215
Airport Frequencies
Type APP Name BELFAST AP Frequency 130.85 MHZ
Type ATIS Name ATIS Frequency 136.625 MHZ
Type TWR Name BELFAST TW Frequency 122.825 MHZ
Airport Navaids
Airport Weather Information & NOTAM
ADDS - METARS form results

(1857 UTC 23 May 2019)
Data provider http://aviationweather.gov/metar/data/
 
METAR text: EGAC 231850Z AUTO 05005KT 9999 NCD 12/05 Q1016
Conditions at: EGAC (BELFAST HARBOUR , GB) observed 1850 UTC 23 May 2019
Temperature: 12.0°C (54°F)
Dewpoint: 5.0°C (41°F) [RH = 62%]
Pressure (altimeter): 30.00 inches Hg (1016.0 mb)
Winds: from the NE (50 degrees) at 6 MPH (5 knots; 2.6 m/s)
Visibility: 6 or more miles (10+ km)
Ceiling: at least 12,000 feet AGL
Clouds: sky clear below 12,000 feet AGL
Weather: no significant weather observed at this time

METAR text: EGAC 231820Z AUTO 07006KT 040V100 9999 FEW040/// SCT048/// 13/05 Q1016
Conditions at: EGAC (BELFAST HARBOUR , GB) observed 1820 UTC 23 May 2019
Temperature: 13.0°C (55°F)
Dewpoint: 5.0°C (41°F) [RH = 58%]
Pressure (altimeter): 30.00 inches Hg (1016.0 mb)
Winds: from the ENE (70 degrees) at 7 MPH (6 knots; 3.1 m/s)
Visibility: 6 or more miles (10+ km)
Ceiling: at least 12,000 feet AGL
Clouds: few clouds at 4000 feet AGL
scattered clouds at 4800 feet AGL
Weather: no significant weather observed at this time

Forecast for: EGAC (BELFAST HARBOUR , GB)
Text: TAF EGAC 231700Z 2318/2321 03007KT 9999 SCT035
Forecast period: 1800 to 2100 UTC 23 May 2019
Forecast type: FROM: standard forecast or significant change
Winds: from the NNE (30 degrees) at 8 MPH (7 knots; 3.6 m/s)
Visibility: 6 or more miles 10+ km)
Ceiling: at least 12,000 feet AGL
Clouds: scattered clouds at 3500 feet AGL
Weather: no significant weather forecast for this period